Terminal Aerodrome Forecast
Issued by NWS Jackson, MS

Home | Current Version | Previous Version | Text Only | Print | Product List | Glossary On
Versions: 1 2 3 4 5 6 7 8 9 10 11 12 13 14 15 16 17 18 19 20 21
969
FTUS44 KJAN 271746 RRA
TAFHBG
TAF
KHBG 271746Z 2718/2818 20012G20KT P6SM FEW020 SCT035 BKN050
     FM271930 21012G20KT 6SM -TSRA SCT025 BKN040CB BKN060
     FM272300 20010KT P6SM SCT035 BKN050
     FM280900 19005KT 6SM BR SCT007 SCT015
     FM281500 25007KT P6SM VCSH SCT020 BKN030=

USA.gov is the U.S. government's official web portal to all federal, state and local government web resources and services.